Time;durP1;ratioP1;P1;durP2;ratioP2;P2;SDS_P1;SDS_P2;PMS_P1;PMS_P2;Temp;Humidity;BMP_temperature;BMP_pressure;BME280_temperature;BME280_humidity;BME280_pressure;Samples;Min_cycle;Max_cycle;Signal;HPM_P1;HPM_P2
2022/12/06 00:01:32;;;;;;;12.32;5.07;;;;;;;5.64;87.64;102218.19;4939815;28;20031;-83
2022/12/06 00:04:00;;;;;;;22.63;6.72;;;;;;;5.64;87.81;102222.47;4939819;28;20031;-83
2022/12/06 00:06:28;;;;;;;16.25;4.63;;;;;;;5.69;87.93;102236.13;4939638;28;20595;-83
2022/12/06 00:08:53;;;;;;;13.65;8.20;;;;;;;5.42;88.10;102190.88;4940117;28;20057;-83
2022/12/06 00:11:21;;;;;;;13.63;7.97;;;;;;;5.68;88.10;102231.84;4955787;28;20469;-83
2022/12/06 00:13:46;;;;;;;14.40;5.50;;;;;;;5.66;88.34;102231.00;4924000;28;20581;-83
2022/12/06 00:16:14;;;;;;;4.75;3.83;;;;;;;5.69;88.27;102225.84;4923811;28;20027;-83
2022/12/06 00:18:40;;;;;;;10.30;5.97;;;;;;;5.70;87.71;102217.28;4939487;28;20121;-83
2022/12/06 00:21:07;;;;;;;6.90;4.68;;;;;;;5.70;88.29;102227.56;4954985;28;20464;-83
2022/12/06 00:23:40;;;;;;;12.32;8.30;;;;;;;5.66;86.68;102207.91;4955475;28;20037;-83
2022/12/06 00:26:06;;;;;;;6.90;4.57;;;;;;;5.67;86.86;102212.16;4923827;28;20031;-84
2022/12/06 00:28:32;;;;;;;13.68;5.78;;;;;;;5.72;87.49;102221.56;4923626;28;20416;-83
2022/12/06 00:30:58;;;;;;;15.00;7.03;;;;;;;5.80;86.72;102219.00;4939363;28;20037;-83
2022/12/06 00:33:24;;;;;;;12.30;6.57;;;;;;;5.75;86.82;102210.44;4939174;28;20030;-83
2022/12/06 00:36:07;;;;;;;14.45;7.82;;;;;;;5.70;86.77;102201.88;4939401;28;20027;-83
2022/12/06 00:38:33;;;;;;;10.70;5.10;;;;;;;5.75;87.06;102210.44;4939250;28;20408;-83
2022/12/06 00:41:12;;;;;;;10.27;5.30;;;;;;;5.81;86.91;102213.00;4923750;28;20506;-83
2022/12/06 00:43:37;;;;;;;13.15;5.88;;;;;;;5.70;86.90;102201.88;4923584;28;20089;-83
2022/12/06 00:46:04;;;;;;;13.05;6.50;;;;;;;5.63;87.29;102184.81;4922941;28;20448;-83
2022/12/06 00:48:29;;;;;;;9.77;4.32;;;;;;;5.74;87.60;102213.88;4923061;28;20065;-83
2022/12/06 00:50:55;;;;;;;11.27;5.78;;;;;;;5.78;86.95;102207.84;4922965;28;20063;-83
2022/12/06 00:53:20;;;;;;;12.98;6.55;;;;;;;5.75;87.38;102202.72;4955399;28;20023;-83
2022/12/06 00:55:46;;;;;;;16.92;5.40;;;;;;;5.78;87.40;102210.41;4938999;28;20477;-83
2022/12/06 00:58:12;;;;;;;15.63;6.70;;;;;;;5.77;87.10;102198.44;4938706;28;20081;-83
2022/12/06 01:00:37;;;;;;;9.68;6.05;;;;;;;5.75;87.67;102203.59;4939008;28;20499;-83
2022/12/06 01:03:03;;;;;;;8.02;5.53;;;;;;;5.70;87.42;102194.19;4938931;28;20038;-83
2022/12/06 01:05:28;;;;;;;14.73;8.02;;;;;;;5.83;86.94;102195.84;4938705;28;20035;-83
2022/12/06 01:07:54;;;;;;;12.13;5.50;;;;;;;5.80;86.88;102197.56;4938979;28;20441;-83
2022/12/06 01:10:20;;;;;;;10.43;6.25;;;;;;;5.79;86.58;102196.72;4923125;28;20029;-83
2022/12/06 01:12:45;;;;;;;12.02;4.93;;;;;;;5.67;87.31;102168.53;4954895;28;20026;-83
2022/12/06 01:15:10;;;;;;;10.05;5.30;;;;;;;5.83;87.54;102198.41;4938861;28;20473;-83
2022/12/06 01:17:36;;;;;;;11.95;6.53;;;;;;;5.80;86.99;102190.75;4922837;28;20141;-83
2022/12/06 01:20:02;;;;;;;12.80;5.72;;;;;;;5.66;86.71;102171.94;4938493;28;20472;-83
2022/12/06 01:22:27;;;;;;;13.50;5.68;;;;;;;5.77;86.84;102201.00;4922952;28;20034;-84
2022/12/06 01:24:54;;;;;;;11.95;7.53;;;;;;;5.75;87.72;102193.31;4922780;28;20057;-83
2022/12/06 01:27:20;;;;;;;11.27;5.70;;;;;;;5.73;87.54;102177.06;4922872;28;20026;-83
2022/12/06 01:29:45;;;;;;;7.28;5.22;;;;;;;5.84;87.43;102184.72;4939008;28;20031;-83
2022/12/06 01:32:11;;;;;;;10.63;4.85;;;;;;;5.78;87.70;102174.47;4954445;28;20477;-83
2022/12/06 01:34:36;;;;;;;13.90;7.18;;;;;;;5.88;87.65;102181.25;4922497;28;20027;-84
2022/12/06 01:37:02;;;;;;;13.02;6.13;;;;;;;5.88;86.62;102181.25;4954354;28;20078;-83
2022/12/06 01:39:27;;;;;;;7.50;4.22;;;;;;;5.80;86.96;102167.63;4938506;28;20031;-83
2022/12/06 01:41:53;;;;;;;12.50;7.57;;;;;;;5.79;86.83;102157.34;4954366;28;20077;-83
2022/12/06 01:44:44;;;;;;;10.00;4.75;;;;;;;5.89;86.34;102169.28;4938284;28;20035;-83
2022/12/06 01:47:14;;;;;;;10.25;5.10;;;;;;;5.71;86.74;102155.69;4954381;28;20060;-83
2022/12/06 01:49:39;;;;;;;12.65;5.05;;;;;;;5.84;86.80;102176.16;4922840;28;20500;-83
2022/12/06 01:52:07;;;;;;;10.48;5.85;;;;;;;5.70;87.09;102150.53;4922738;28;20042;-83
2022/12/06 01:54:32;;;;;;;11.35;6.20;;;;;;;5.66;87.27;102148.84;4922425;28;20031;-83
2022/12/06 01:56:58;;;;;;;11.63;5.10;;;;;;;5.58;87.80;102135.19;4922629;28;20035;-84
2022/12/06 01:59:23;;;;;;;12.15;6.35;;;;;;;5.52;87.94;102132.66;4941430;28;20026;-83
2022/12/06 02:01:49;;;;;;;15.57;5.72;;;;;;;5.60;88.38;102143.72;4926365;28;20556;-83
2022/12/06 02:04:15;;;;;;;14.65;7.15;;;;;;;5.74;88.27;102157.38;4941799;28;20041;-83
2022/12/06 02:06:40;;;;;;;9.10;4.78;;;;;;;5.69;88.41;102149.66;4941902;28;20029;-83
2022/12/06 02:09:06;;;;;;;19.55;7.22;;;;;;;5.75;88.54;102151.38;4942141;28;20026;-84
2022/12/06 02:11:32;;;;;;;12.38;6.28;;;;;;;5.80;87.93;102147.09;4926185;28;20027;-83
2022/12/06 02:13:58;;;;;;;9.27;6.05;;;;;;;5.68;88.15;102116.31;4957997;28;20039;-82
2022/12/06 02:16:51;;;;;;;12.35;6.20;;;;;;;5.88;88.04;102145.31;4941752;28;20463;-83
2022/12/06 02:19:47;;;;;;;11.10;5.57;;;;;;;5.89;87.14;102144.44;4957719;28;20043;-84
2022/12/06 02:22:22;;;;;;;8.55;5.68;;;;;;;5.85;87.45;102150.47;4957620;28;20027;-83
2022/12/06 02:25:18;;;;;;;4.90;3.90;;;;;;;5.81;87.55;102155.63;4941592;28;20126;-84
2022/12/06 02:27:55;;;;;;;11.68;5.78;;;;;;;5.71;88.63;102147.13;4975029;28;20027;-83
2022/12/06 02:30:46;;;;;;;7.13;3.95;;;;;;;5.80;87.70;102144.50;4941599;28;20408;-83
2022/12/06 02:33:32;;;;;;;11.52;5.75;;;;;;;5.76;87.74;102132.53;4957413;28;20027;-83
2022/12/06 02:36:18;;;;;;;9.88;4.53;;;;;;;5.83;87.21;102141.91;4959433;28;20035;-83
2022/12/06 02:38:58;;;;;;;7.38;4.35;;;;;;;5.74;87.49;102145.38;4974447;28;20081;-83
2022/12/06 02:41:43;;;;;;;7.70;5.15;;;;;;;5.67;87.99;102124.88;4926119;28;20027;-83
2022/12/06 02:44:23;;;;;;;10.05;5.97;;;;;;;5.60;88.08;102112.91;4941915;28;20031;-83
2022/12/06 02:46:48;;;;;;;10.05;5.43;;;;;;;5.58;88.07;102101.81;4942756;28;20435;-83
2022/12/06 02:49:14;;;;;;;5.65;2.83;;;;;;;5.75;87.77;102123.97;4941372;28;20496;-83
2022/12/06 02:51:40;;;;;;;10.77;6.22;;;;;;;5.72;87.66;102118.00;4941145;28;20030;-83
2022/12/06 02:54:07;;;;;;;14.68;6.20;;;;;;;5.64;87.97;102109.50;4957439;28;20035;-83
2022/12/06 02:56:32;;;;;;;9.52;6.03;;;;;;;5.60;88.08;102080.38;4941273;28;20035;-83
2022/12/06 02:58:58;;;;;;;9.00;5.32;;;;;;;5.78;87.46;102117.97;4940877;28;20085;-83
2022/12/06 03:01:28;;;;;;;7.28;3.63;;;;;;;5.83;86.97;102121.38;4924650;28;20027;-83
2022/12/06 03:04:09;;;;;;;6.07;4.57;;;;;;;5.81;86.84;102109.41;4941207;28;20552;-83
2022/12/06 03:06:44;;;;;;;9.60;5.57;;;;;;;5.81;86.80;102112.84;4941002;28;20030;-83
2022/12/06 03:09:21;;;;;;;5.93;5.05;;;;;;;5.81;86.46;102105.13;4940416;28;20038;-83
2022/12/06 03:11:59;;;;;;;15.18;10.15;;;;;;;5.75;87.23;102103.44;4956361;28;20031;-83
2022/12/06 03:14:26;;;;;;;9.63;6.75;;;;;;;5.80;87.22;102093.16;4940868;28;20035;-83
2022/12/06 03:17:16;;;;;;;11.70;7.78;;;;;;;5.79;86.88;102091.41;4924531;28;20054;-84
2022/12/06 03:19:41;;;;;;;11.32;6.13;;;;;;;5.63;87.18;102087.25;4973791;28;20035;-83
2022/12/06 03:22:13;;;;;;;15.75;4.28;;;;;;;5.45;87.40;102073.63;4924994;28;20031;-84
2022/12/06 03:24:39;;;;;;;7.68;4.18;;;;;;;5.45;87.83;102072.78;4941380;28;20034;-83
2022/12/06 03:27:13;;;;;;;6.35;4.95;;;;;;;5.62;87.82;102100.94;4924893;28;20030;-83
2022/12/06 03:29:44;;;;;;;7.03;4.50;;;;;;;5.63;87.75;102093.22;4924522;28;20031;-83
2022/12/06 03:32:10;;;;;;;9.20;5.50;;;;;;;5.58;88.08;102088.97;4925122;28;20114;-83
2022/12/06 03:34:43;;;;;;;11.68;5.05;;;;;;;5.64;88.45;102091.53;4940255;28;20660;-83
2022/12/06 03:37:10;;;;;;;4.07;3.28;;;;;;;5.61;87.63;102084.69;4925405;28;20041;-84
2022/12/06 03:39:49;;;;;;;7.78;4.95;;;;;;;5.72;87.60;102082.91;4940401;28;20033;-83
2022/12/06 03:42:14;;;;;;;5.38;3.75;;;;;;;5.74;86.53;102080.34;4957061;28;20477;-83
2022/12/06 03:44:40;;;;;;;8.93;4.63;;;;;;;5.77;86.42;102082.88;4924072;28;20026;-83
2022/12/06 03:47:10;;;;;;;6.13;3.55;;;;;;;5.73;87.10;102089.75;4940413;28;20098;-83
2022/12/06 03:49:40;;;;;;;7.75;4.13;;;;;;;5.51;87.60;102048.81;4924735;28;20038;-83
2022/12/06 03:52:05;;;;;;;7.60;4.20;;;;;;;5.68;87.08;102075.22;4940510;28;20035;-83
2022/12/06 03:54:30;;;;;;;7.22;4.88;;;;;;;5.63;87.36;102079.53;4955894;28;20027;-84
2022/12/06 03:56:56;;;;;;;11.07;4.95;;;;;;;5.68;86.92;102076.06;4940098;28;20167;-84
2022/12/06 03:59:21;;;;;;;5.97;4.55;;;;;;;5.68;87.17;102086.34;4923989;28;20045;-84
2022/12/06 04:01:47;;;;;;;6.13;4.72;;;;;;;5.61;87.37;102073.56;4939903;28;20042;-82
2022/12/06 04:04:12;;;;;;;6.95;4.47;;;;;;;5.71;88.11;102070.09;4939799;28;20089;-81
2022/12/06 04:06:38;;;;;;;11.45;3.20;;;;;;;5.92;87.63;102080.25;4939872;28;20027;-81
2022/12/06 04:11:47;;;;;;;6.28;3.78;;;;;;;6.04;85.75;102080.16;4958266;28;20420;-82
2022/12/06 04:14:13;;;;;;;12.43;5.60;;;;;;;6.07;85.51;102079.28;4955560;28;20035;-81
2022/12/06 04:19:22;;;;;;;11.43;5.93;;;;;;;5.98;85.44;102077.63;4957256;28;20038;-80
2022/12/06 04:24:31;;;;;;;10.65;4.38;;;;;;;6.07;85.45;102081.84;4944141;28;20085;-79
2022/12/06 04:40:40;;;;;;;9.43;5.88;;;;;;;5.81;87.08;102056.34;4972184;28;20041;-80
2022/12/06 04:45:52;;;;;;;8.35;4.22;;;;;;;5.87;86.46;102055.41;4972067;28;20131;-82
2022/12/06 04:48:17;;;;;;;12.18;6.00;;;;;;;5.90;86.39;102063.09;4939216;28;20051;-81
2022/12/06 04:50:47;;;;;;;14.00;6.05;;;;;;;5.85;86.79;102063.13;4923174;28;20035;-82
2022/12/06 04:53:12;;;;;;;7.63;3.55;;;;;;;5.82;86.87;102052.91;4939212;28;20039;-81
2022/12/06 04:55:38;;;;;;;13.00;5.70;;;;;;;5.78;86.71;102047.78;4938465;28;20031;-81
2022/12/06 04:58:04;;;;;;;13.95;7.03;;;;;;;5.69;87.10;102053.81;4921951;28;20042;-81
2022/12/06 05:00:29;;;;;;;6.65;3.95;;;;;;;5.59;87.21;102044.47;4971356;28;20045;-81
2022/12/06 05:02:55;;;;;;;21.00;6.15;;;;;;;5.76;87.06;102055.50;4971785;28;20509;-80
2022/12/06 05:05:20;;;;;;;5.70;3.95;;;;;;;5.73;86.75;102055.53;4936446;28;20070;-81
2022/12/06 05:07:46;;;;;;;6.90;4.97;;;;;;;5.62;87.29;102049.59;4954827;28;20412;-81
2022/12/06 05:10:12;;;;;;;14.25;7.22;;;;;;;5.72;87.15;102052.09;4972155;28;20066;-80
2022/12/06 05:12:37;;;;;;;12.65;5.57;;;;;;;5.76;86.74;102042.66;4938327;28;20082;-78
2022/12/06 05:15:03;;;;;;;17.13;8.52;;;;;;;5.62;86.68;102006.81;4954569;28;20504;-80
2022/12/06 05:17:28;;;;;;;6.00;4.80;;;;;;;5.78;86.35;102053.75;4953809;28;20141;-85
2022/12/06 05:19:54;;;;;;;9.70;4.40;;;;;;;5.67;86.72;102032.44;4938645;28;20035;-82
2022/12/06 05:22:19;;;;;;;6.35;4.55;;;;;;;5.82;86.96;102052.91;4937219;28;20390;-93
2022/12/06 05:24:45;;;;;;;6.85;4.07;;;;;;;5.74;86.01;102028.97;4922701;28;20030;-79
2022/12/06 05:27:10;;;;;;;4.28;3.15;;;;;;;5.80;86.54;102038.34;4938051;28;20030;-90
2022/12/06 05:29:36;;;;;;;6.78;4.38;;;;;;;5.80;85.86;102034.09;4925895;28;20039;-89
2022/12/06 05:32:01;;;;;;;5.38;4.60;;;;;;;5.83;86.08;102039.19;4958106;28;20030;-85
2022/12/06 05:34:27;;;;;;;7.65;4.47;;;;;;;5.75;86.63;102025.53;4954029;28;20031;-87
2022/12/06 05:36:52;;;;;;;7.88;4.72;;;;;;;5.65;86.32;102023.91;4943552;28;20031;-84
2022/12/06 05:39:18;;;;;;;14.25;5.40;;;;;;;5.74;86.72;102049.53;4960759;28;20061;-92
2022/12/06 05:41:43;;;;;;;9.10;5.43;;;;;;;5.76;87.10;102052.94;4961928;28;20034;-88
2022/12/06 05:44:12;;;;;;;12.48;5.75;;;;;;;5.72;87.38;102040.97;4961545;28;20081;-83
2022/12/06 05:46:37;;;;;;;12.85;8.45;;;;;;;5.72;87.26;102031.56;4944552;28;20022;-84
2022/12/06 05:49:03;;;;;;;8.68;5.68;;;;;;;5.84;87.01;102040.88;4952769;28;20085;-91
2022/12/06 05:51:28;;;;;;;13.50;4.68;;;;;;;5.95;86.64;102046.84;4915952;28;20034;-91
2022/12/06 05:53:53;;;;;;;14.60;7.88;;;;;;;5.93;86.60;102050.28;4959422;28;20031;-90
2022/12/06 05:56:19;;;;;;;8.63;4.22;;;;;;;5.85;85.81;102042.59;4945119;28;20074;-91
2022/12/06 05:58:44;;;;;;;10.15;6.15;;;;;;;5.75;86.63;102025.53;4944895;28;20492;-91
2022/12/06 06:01:10;;;;;;;8.02;4.72;;;;;;;5.85;86.30;102042.59;4936759;28;20038;-92
2022/12/06 06:03:36;;;;;;;8.85;4.80;;;;;;;5.88;86.91;102045.13;4945601;28;20026;-82
2022/12/06 06:06:01;;;;;;;7.70;4.78;;;;;;;5.85;86.73;102042.59;4933247;28;20419;-85
2022/12/06 06:08:27;;;;;;;10.25;4.70;;;;;;;5.90;86.54;102051.16;4937531;28;20116;-91
2022/12/06 06:10:53;;;;;;;5.57;4.10;;;;;;;5.65;86.58;102005.94;4947204;28;20511;-91
2022/12/06 06:13:18;;;;;;;8.10;4.75;;;;;;;5.70;86.84;102005.03;4929441;28;20030;-87
2022/12/06 06:15:44;;;;;;;11.52;6.78;;;;;;;6.07;86.71;102055.31;4979778;28;20038;-88
2022/12/06 06:18:09;;;;;;;9.05;5.68;;;;;;;6.41;86.78;102061.06;4956908;28;20054;-83
2022/12/06 06:20:35;;;;;;;14.07;5.57;;;;;;;6.41;84.58;102038.75;4936915;28;20059;-84
2022/12/06 06:23:00;;;;;;;14.10;7.45;;;;;;;6.47;84.60;102048.97;4942891;28;20031;-84
2022/12/06 06:25:26;;;;;;;9.38;6.18;;;;;;;6.49;84.44;102020.66;4942319;29;20050;-87
2022/12/06 06:27:53;;;;;;;7.15;4.45;;;;;;;6.29;83.28;102005.44;4941651;28;20519;-87
2022/12/06 06:30:18;;;;;;;8.50;4.82;;;;;;;6.70;83.42;102043.63;4941676;28;20516;-92
2022/12/06 06:32:44;;;;;;;10.80;5.47;;;;;;;6.57;82.65;102027.44;4939128;28;20039;-89
2022/12/06 06:35:10;;;;;;;12.48;6.40;;;;;;;6.67;82.65;102029.94;4974166;28;20026;-83
2022/12/06 06:37:35;;;;;;;23.58;6.53;;;;;;;6.72;82.48;102029.03;4940051;28;20070;-83
2022/12/06 06:40:01;;;;;;;8.10;5.13;;;;;;;6.65;82.05;102036.81;4952831;28;20031;-81
2022/12/06 06:42:26;;;;;;;5.35;4.35;;;;;;;6.49;83.09;102015.53;4955389;28;20077;-82
2022/12/06 06:44:55;;;;;;;9.63;4.95;;;;;;;6.74;83.75;102026.44;4955694;28;20480;-80
2022/12/06 06:47:21;;;;;;;9.63;5.45;;;;;;;6.74;81.92;102034.16;4925047;29;20063;-85
2022/12/06 06:49:46;;;;;;;10.23;7.30;;;;;;;6.58;82.27;102018.84;4937759;29;20039;-87
2022/12/06 06:52:12;;;;;;;9.27;6.32;;;;;;;6.39;82.72;102004.50;4922583;28;20051;-86
2022/12/06 06:54:37;;;;;;;14.13;5.68;;;;;;;6.42;82.97;102037.91;4940796;28;20030;-91
2022/12/06 06:57:03;;;;;;;16.65;9.02;;;;;;;6.31;83.17;102034.56;4957826;28;20038;-88
2022/12/06 06:59:28;;;;;;;10.73;6.75;;;;;;;6.28;83.90;102032.84;4952771;28;20082;-88
2022/12/06 07:01:54;;;;;;;16.10;7.63;;;;;;;6.28;84.22;102039.72;4963954;28;20031;-90
2022/12/06 07:04:19;;;;;;;7.35;5.65;;;;;;;6.31;83.61;102035.41;4925211;28;20082;-85
2022/12/06 07:06:45;;;;;;;5.82;3.35;;;;;;;6.26;84.42;102032.03;4942972;28;20424;-87
2022/12/06 07:09:10;;;;;;;8.35;5.18;;;;;;;6.24;83.67;102030.34;4945872;28;20030;-87
2022/12/06 07:11:36;;;;;;;6.90;4.38;;;;;;;6.15;84.32;102017.56;4948086;28;20030;-94
2022/12/06 07:14:02;;;;;;;12.75;6.43;;;;;;;6.16;84.55;102014.97;4962699;28;20034;-91
2022/12/06 07:16:27;;;;;;;6.38;3.70;;;;;;;6.13;84.42;102006.47;4952369;28;20028;-96
2022/12/06 07:18:53;;;;;;;7.68;5.32;;;;;;;6.11;84.65;102013.34;4925805;28;20031;-89
2022/12/06 07:21:20;;;;;;;7.35;4.88;;;;;;;6.11;84.66;102018.47;4944850;28;20505;-90
2022/12/06 07:23:46;;;;;;;8.48;6.35;;;;;;;6.10;84.98;102016.78;4953415;28;20030;-95
2022/12/06 07:26:13;;;;;;;6.65;4.55;;;;;;;6.13;85.26;102017.59;4929591;28;20523;-87
2022/12/06 07:28:40;;;;;;;14.50;6.00;;;;;;;6.17;84.61;102013.25;4937173;28;20037;-94
2022/12/06 07:31:13;;;;;;;8.45;4.38;;;;;;;6.21;84.43;102020.09;4931945;28;20473;-81
2022/12/06 07:33:38;;;;;;;;;;;;;;;6.20;84.64;102020.97;4960382;28;20109;-84
2022/12/06 07:36:04;;;;;;;8.20;4.55;;;;;;;6.21;84.82;102023.53;4959154;28;20469;-82
2022/12/06 07:38:29;;;;;;;15.10;5.72;;;;;;;6.36;85.03;102012.22;4952625;28;20093;-82
2022/12/06 07:41:00;;;;;;;11.48;6.22;;;;;;;6.38;84.21;101999.34;4924144;28;20474;-83
2022/12/06 07:46:10;;;;;;;14.57;8.60;;;;;;;6.59;82.77;102019.75;4947898;28;20062;-92
2022/12/06 07:48:36;;;;;;;13.43;6.70;;;;;;;6.44;81.96;101992.44;4934971;28;20039;-82
2022/12/06 07:51:04;;;;;;;7.65;4.93;;;;;;;6.95;89.64;102021.03;4971195;28;20049;-84
2022/12/06 07:53:29;;;;;;;10.13;5.60;;;;;;;6.98;83.47;101974.72;4939369;28;20054;-81
2022/12/06 07:55:54;;;;;;;12.57;6.18;;;;;;;7.02;81.63;102002.09;4956414;28;20105;-86
2022/12/06 07:58:20;;;;;;;13.55;6.78;;;;;;;6.90;81.28;102012.53;4935865;28;20115;-88
2022/12/06 08:00:46;;;;;;;12.55;5.80;;;;;;;6.70;81.64;101993.91;4944062;28;20034;-81
2022/12/06 08:03:11;;;;;;;14.18;7.38;;;;;;;6.65;81.54;102001.66;4972574;28;20552;-84
2022/12/06 08:05:37;;;;;;;10.18;6.35;;;;;;;6.61;82.59;102013.72;4954315;28;20030;-85
2022/12/06 08:08:03;;;;;;;17.55;9.68;;;;;;;6.74;82.49;102011.84;4948705;28;20026;-87
2022/12/06 08:10:28;;;;;;;10.27;5.85;;;;;;;6.85;84.36;101989.41;4954566;28;20030;-83
2022/12/06 08:12:53;;;;;;;9.95;7.60;;;;;;;7.06;83.82;102005.47;4971656;28;20495;-81
2022/12/06 08:15:19;;;;;;;11.43;7.40;;;;;;;7.45;86.00;101996.38;4940286;28;20086;-82
2022/12/06 08:17:45;;;;;;;12.25;4.80;;;;;;;7.80;82.42;102002.75;4961740;28;20057;-81
2022/12/06 08:20:11;;;;;;;12.73;5.38;;;;;;;7.68;78.37;102003.78;4935907;28;20066;-81
2022/12/06 08:22:37;;;;;;;13.45;7.18;;;;;;;7.27;78.37;101965.72;4971083;28;20121;-85
2022/12/06 08:25:02;;;;;;;7.40;5.28;;;;;;;7.33;78.51;101981.09;4942455;28;20035;-86
2022/12/06 08:27:28;;;;;;;6.97;4.28;;;;;;;7.01;78.20;101938.63;4954316;28;20655;-79
2022/12/06 08:29:54;;;;;;;6.88;4.50;;;;;;;7.13;79.18;101984.78;4976050;28;20023;-82
2022/12/06 08:32:19;;;;;;;9.43;5.45;;;;;;;7.00;80.40;101977.25;4954311;28;20097;-88
2022/12/06 08:34:48;;;;;;;12.55;7.05;;;;;;;6.93;80.21;101976.47;4934738;28;20031;-90
2022/12/06 08:37:14;;;;;;;7.88;4.18;;;;;;;6.84;80.28;101976.59;4953978;28;20127;-78
2022/12/06 08:39:39;;;;;;;10.45;4.63;;;;;;;6.70;80.04;101955.34;4954086;28;20349;-83
2022/12/06 08:42:06;;;;;;;6.93;4.43;;;;;;;6.88;80.15;101996.25;4954639;28;20038;-85
2022/12/06 08:44:32;;;;;;;9.57;4.88;;;;;;;6.67;80.47;101970.78;4941481;28;20027;-93
2022/12/06 08:46:59;;;;;;;3.42;2.67;;;;;;;6.90;84.12;101987.66;4939458;28;20173;-90
2022/12/06 08:49:25;;;;;;;10.25;5.85;;;;;;;6.96;81.81;101991.88;4925116;28;20034;-82
2022/12/06 08:51:51;;;;;;;9.05;5.10;;;;;;;7.02;81.57;101981.50;4934544;28;20026;-90
2022/12/06 08:54:17;;;;;;;6.88;4.78;;;;;;;7.13;81.03;101992.50;4938164;28;20046;-86
2022/12/06 08:56:43;;;;;;;6.88;4.85;;;;;;;7.17;80.16;101983.88;4952412;28;20031;-83
2022/12/06 08:59:09;;;;;;;7.32;5.00;;;;;;;6.99;80.18;101973.84;4937068;29;20090;-84
2022/12/06 09:01:34;;;;;;;12.65;5.18;;;;;;;7.01;79.45;101979.81;4946106;28;20057;-83
2022/12/06 09:04:04;;;;;;;8.55;4.80;;;;;;;6.86;80.21;101980.84;4943331;28;20117;-82
2022/12/06 09:06:29;;;;;;;10.68;5.93;;;;;;;6.77;80.74;101960.38;4946493;28;20480;-87
2022/12/06 09:08:57;;;;;;;10.48;5.90;;;;;;;6.77;80.95;101964.66;4922707;28;20055;-79
2022/12/06 09:11:23;;;;;;;8.65;5.10;;;;;;;6.79;81.40;101958.66;4941809;28;20033;-87
2022/12/06 09:13:48;;;;;;;6.32;4.00;;;;;;;6.82;81.07;101963.75;4937191;28;20416;-85
2022/12/06 09:16:19;;;;;;;8.15;5.35;;;;;;;6.88;80.79;101949.94;4969563;28;20512;-82
2022/12/06 09:18:44;;;;;;;7.88;4.38;;;;;;;6.79;81.36;101932.06;4935967;28;20043;-82
2022/12/06 09:21:12;;;;;;;9.85;6.65;;;;;;;6.78;81.32;101935.50;4924036;28;20033;-85
2022/12/06 09:23:38;;;;;;;12.98;5.65;;;;;;;6.85;80.74;101929.41;4944311;28;20031;-85
2022/12/06 09:26:03;;;;;;;5.15;4.45;;;;;;;6.90;80.91;101935.38;4977765;28;20604;-84
2022/12/06 09:28:29;;;;;;;8.57;5.65;;;;;;;6.87;80.16;101930.22;4951543;28;20051;-94
2022/12/06 09:30:55;;;;;;;12.75;6.18;;;;;;;6.79;80.90;101919.22;4922258;28;20034;-81
2022/12/06 09:33:23;;;;;;;9.75;4.63;;;;;;;6.92;80.55;101935.34;4946645;28;20026;-96
2022/12/06 09:35:49;;;;;;;14.20;5.57;;;;;;;7.05;82.18;101929.16;4951148;28;20030;-84
2022/12/06 09:38:15;;;;;;;15.55;7.63;;;;;;;6.84;80.96;101889.97;4959087;28;20031;-87
2022/12/06 09:40:41;;;;;;;15.13;9.25;;;;;;;7.21;80.53;101934.94;4953826;28;20022;-88
2022/12/06 09:43:11;;;;;;;8.63;4.72;;;;;;;7.13;78.68;101894.72;4978078;28;20027;-80
2022/12/06 09:45:48;;;;;;;10.65;4.53;;;;;;;7.32;78.33;101923.63;4937954;28;20115;-85
2022/12/06 09:48:26;;;;;;;8.27;4.68;;;;;;;7.28;78.74;101923.69;4961051;28;20047;-81
2022/12/06 09:51:00;;;;;;;6.55;4.50;;;;;;;7.27;79.26;101919.41;4963724;28;20027;-82
2022/12/06 09:53:58;;;;;;;9.85;4.97;;;;;;;7.15;79.20;101900.69;4946460;28;20119;-82
2022/12/06 09:56:43;;;;;;;13.00;5.93;;;;;;;7.33;81.38;101914.16;4960257;28;20034;-91
2022/12/06 09:59:19;;;;;;;13.43;5.65;;;;;;;8.13;83.26;101904.22;4926184;28;20090;-85
2022/12/06 10:01:59;;;;;;;9.27;6.00;;;;;;;7.76;77.57;101894.56;4953004;28;20468;-87
2022/12/06 10:04:38;;;;;;;8.88;4.28;;;;;;;7.66;77.61;101882.72;4971277;28;20031;-86
2022/12/06 10:07:19;;;;;;;9.35;5.78;;;;;;;7.56;77.85;101894.06;4965991;28;20070;-91
2022/12/06 10:09:53;;;;;;;10.20;6.10;;;;;;;7.52;77.59;101889.84;4970790;28;20097;-82
2022/12/06 10:12:22;;;;;;;12.75;5.35;;;;;;;7.36;78.04;101867.78;4953409;28;20109;-83
2022/12/06 10:15:02;;;;;;;6.47;5.03;;;;;;;7.30;78.68;101873.03;4970493;28;20022;-84
2022/12/06 10:17:54;;;;;;;7.13;4.45;;;;;;;7.41;78.55;101876.28;4962072;28;20520;-84
2022/12/06 10:20:31;;;;;;;21.95;12.85;;;;;;;7.40;78.53;101859.16;4943548;28;20162;-85
2022/12/06 10:23:08;;;;;;;8.95;6.03;;;;;;;7.35;78.79;101846.31;4970687;28;20112;-85
2022/12/06 10:25:54;;;;;;;8.73;4.60;;;;;;;7.43;78.07;101854.78;4945794;28;20489;-85
2022/12/06 10:28:52;;;;;;;11.32;6.32;;;;;;;7.28;79.17;101860.19;4942791;28;20031;-87
2022/12/06 10:31:27;;;;;;;10.88;7.10;;;;;;;7.22;79.82;101847.41;4943688;28;20043;-91
2022/12/06 10:33:57;;;;;;;13.35;6.28;;;;;;;7.22;79.62;101859.44;4942933;28;20034;-84
2022/12/06 10:36:49;;;;;;;8.20;5.68;;;;;;;7.36;79.41;101860.06;4945281;28;20026;-80
2022/12/06 10:39:21;;;;;;;6.57;4.38;;;;;;;7.18;79.74;101843.19;4973658;28;20030;-79
2022/12/06 10:41:56;;;;;;;9.45;5.82;;;;;;;7.65;81.40;101847.53;4929083;28;20027;-89
2022/12/06 10:44:25;;;;;;;13.40;8.07;;;;;;;7.57;78.72;101833.97;4973198;28;20038;-84
2022/12/06 10:47:05;;;;;;;8.90;6.03;;;;;;;7.70;78.06;101840.59;4955679;28;20035;-90
2022/12/06 10:50:05;;;;;;;13.18;4.88;;;;;;;7.70;78.28;101838.03;4963258;28;20089;-86
2022/12/06 10:52:41;;;;;;;10.98;5.03;;;;;;;7.71;77.23;101810.53;4946913;28;20121;-88
2022/12/06 10:55:11;;;;;;;7.70;3.55;;;;;;;7.84;76.92;101821.47;4953459;28;20042;-84
2022/12/06 10:57:51;;;;;;;8.88;5.75;;;;;;;7.70;77.00;101821.72;4971061;28;20015;-86
2022/12/06 11:00:25;;;;;;;13.43;6.55;;;;;;;7.71;77.03;101819.13;4968457;28;20035;-84
2022/12/06 11:03:02;;;;;;;12.13;6.60;;;;;;;7.74;77.36;101808.75;4973267;28;20023;-83
2022/12/06 11:05:52;;;;;;;11.02;7.78;;;;;;;7.56;77.20;101801.34;4956583;28;20039;-84
2022/12/06 11:08:38;;;;;;;10.30;5.93;;;;;;;7.63;77.77;101815.81;4956093;28;20027;-85
2022/12/06 11:11:05;;;;;;;15.43;6.50;;;;;;;7.63;77.02;101818.41;4942857;28;20030;-82
2022/12/06 11:13:36;;;;;;;17.13;7.47;;;;;;;7.62;77.55;101819.28;4944557;28;20031;-87
2022/12/06 11:16:04;;;;;;;15.77;10.23;;;;;;;7.71;77.49;101808.81;4973225;28;20026;-83
2022/12/06 11:18:30;;;;;;;15.95;8.45;;;;;;;7.65;77.03;101798.59;4952008;28;20047;-84
2022/12/06 11:21:12;;;;;;;25.02;14.48;;;;;;;7.39;77.67;101775.06;4940465;28;20440;-81
2022/12/06 11:24:12;;;;;;;15.38;10.13;;;;;;;7.44;76.94;101783.53;4961769;28;20031;-83
2022/12/06 11:27:07;;;;;;;11.45;6.85;;;;;;;7.41;77.84;101792.19;4940342;28;20027;-89
2022/12/06 11:29:32;;;;;;;11.02;6.72;;;;;;;7.26;77.60;101763.25;4953672;28;20034;-82
2022/12/06 11:32:00;;;;;;;15.90;6.78;;;;;;;7.33;78.15;101780.31;4971072;28;20061;-84
2022/12/06 11:34:31;;;;;;;11.05;6.25;;;;;;;7.37;78.45;101784.50;4943351;28;20023;-84
2022/12/06 11:36:58;;;;;;;9.02;4.57;;;;;;;7.36;77.96;101790.53;4976453;28;20041;-86
2022/12/06 11:39:23;;;;;;;8.60;4.65;;;;;;;7.30;77.52;101782.94;4954982;28;20023;-83
2022/12/06 11:41:50;;;;;;;15.20;7.30;;;;;;;7.28;77.44;101774.41;4939032;29;20045;-81
2022/12/06 11:44:19;;;;;;;9.73;5.55;;;;;;;7.29;77.22;101774.38;4941445;28;20022;-87
2022/12/06 11:46:50;;;;;;;8.95;5.07;;;;;;;7.02;77.22;101744.78;4942887;28;20125;-86
2022/12/06 11:49:24;;;;;;;11.05;6.20;;;;;;;7.19;77.86;101767.69;4931277;28;20026;-84
2022/12/06 11:51:50;;;;;;;10.27;4.03;;;;;;;6.94;77.32;101715.75;4956838;28;20030;-89
2022/12/06 11:54:42;;;;;;;17.52;7.15;;;;;;;7.06;78.12;101754.16;4935177;28;20493;-89
2022/12/06 11:57:22;;;;;;;12.20;7.65;;;;;;;7.10;78.88;101768.69;4942045;28;20519;-90
2022/12/06 12:00:11;;;;;;;13.05;6.47;;;;;;;7.21;78.30;101788.25;4949096;28;20500;-87
2022/12/06 12:02:37;;;;;;;9.90;5.88;;;;;;;7.17;77.60;101765.09;4948835;28;20038;-87
2022/12/06 12:05:08;;;;;;;14.82;7.30;;;;;;;7.22;77.59;101770.19;4928408;28;20444;-92
2022/12/06 12:07:33;;;;;;;10.23;6.32;;;;;;;7.22;77.79;101779.66;4937811;28;20031;-86